Time;durP1;ratioP1;P1;durP2;ratioP2;P2;SDS_P1;SDS_P2;PMS_P1;PMS_P2;Temp;Humidity;BMP_temperature;BMP_pressure;BME280_temperature;BME280_humidity;BME280_pressure;Samples;Min_cycle;Max_cycle;Signal;HPM_P1;HPM_P2
2022/01/17 00:00:12;;;;;;;8.82;1.80;;;5.30;99.90;;;;;;5016067;28;20350;-68
2022/01/17 00:02:39;;;;;;;13.73;2.05;;;5.30;99.90;;;;;;5042650;28;20835;-68
2022/01/17 00:05:06;;;;;;;17.88;2.60;;;5.20;99.90;;;;;;5047958;28;20048;-67
2022/01/17 00:07:32;;;;;;;10.00;1.85;;;5.10;99.90;;;;;;5042229;28;20045;-68
2022/01/17 00:09:58;;;;;;;12.75;2.20;;;5.00;99.90;;;;;;5036709;28;20033;-67
2022/01/17 00:12:24;;;;;;;13.80;1.77;;;5.00;99.90;;;;;;5028400;28;20056;-67
2022/01/17 00:14:50;;;;;;;20.92;2.50;;;4.90;99.90;;;;;;5036152;28;20033;-68
2022/01/17 00:19:44;;;;;;;16.02;2.35;;;4.70;99.90;;;;;;5048480;28;20552;-68
2022/01/17 00:22:13;;;;;;;16.58;2.70;;;4.60;99.90;;;;;;5029955;28;20052;-67
2022/01/17 00:24:38;;;;;;;14.27;1.90;;;4.60;99.90;;;;;;5049373;28;20116;-67
2022/01/17 00:27:04;;;;;;;11.77;1.98;;;4.60;99.90;;;;;;5040619;28;20145;-67
2022/01/17 00:29:30;;;;;;;13.65;2.17;;;4.50;99.90;;;;;;5031164;28;20044;-67
2022/01/17 00:31:56;;;;;;;15.45;2.40;;;4.50;99.90;;;;;;5030836;28;20087;-67
2022/01/17 00:34:22;;;;;;;9.45;2.00;;;4.40;99.90;;;;;;5030517;28;20068;-67
2022/01/17 00:36:47;;;;;;;11.30;2.00;;;4.40;99.90;;;;;;5028812;28;20041;-68
2022/01/17 00:39:13;;;;;;;16.15;2.03;;;4.30;99.90;;;;;;5026819;28;20531;-67
2022/01/17 00:41:38;;;;;;;16.85;2.67;;;4.40;99.90;;;;;;5037863;28;20168;-68
2022/01/17 00:44:04;;;;;;;14.30;1.83;;;4.50;99.90;;;;;;5028496;28;20470;-67
2022/01/17 00:46:31;;;;;;;10.68;1.80;;;4.50;99.90;;;;;;5029771;28;20056;-68
2022/01/17 00:48:57;;;;;;;14.32;2.58;;;4.50;99.90;;;;;;5022854;28;20045;-67
2022/01/17 00:51:22;;;;;;;12.82;2.28;;;4.50;99.90;;;;;;5014918;28;20044;-67
2022/01/17 00:53:48;;;;;;;13.25;2.35;;;4.60;99.90;;;;;;5047859;28;20083;-68
2022/01/17 00:56:14;;;;;;;17.15;2.13;;;4.60;99.90;;;;;;5042544;28;20036;-67
2022/01/17 00:58:40;;;;;;;12.85;2.00;;;4.50;99.90;;;;;;5041148;28;20055;-68
2022/01/17 01:01:06;;;;;;;14.70;2.47;;;4.60;99.90;;;;;;5028130;28;20100;-68
2022/01/17 01:03:32;;;;;;;14.35;2.40;;;4.60;99.90;;;;;;5028851;28;20095;-70
2022/01/17 01:05:57;;;;;;;13.13;1.92;;;4.70;99.90;;;;;;5026712;28;20041;-69
2022/01/17 01:08:23;;;;;;;10.07;1.98;;;4.70;99.90;;;;;;5047316;28;20036;-68
2022/01/17 01:10:48;;;;;;;18.45;2.47;;;4.80;99.90;;;;;;5046636;28;20128;-67
2022/01/17 01:13:16;;;;;;;14.65;1.95;;;4.80;99.90;;;;;;5035825;28;20108;-68
2022/01/17 01:18:19;;;;;;;17.05;2.15;;;4.80;99.90;;;;;;5042931;28;20505;-68
2022/01/17 01:28:43;;;;;;;9.77;2.10;;;4.60;99.90;;;;;;5041289;28;20064;-68
2022/01/17 01:31:15;;;;;;;20.10;2.20;;;4.60;99.90;;;;;;5047457;28;20045;-68
2022/01/17 01:33:48;;;;;;;14.55;2.15;;;4.70;99.90;;;;;;5016030;28;20049;-68
2022/01/17 01:36:20;;;;;;;14.68;2.35;;;4.70;99.90;;;;;;5034649;28;20049;-68
2022/01/17 01:38:45;;;;;;;13.23;1.95;;;4.80;99.90;;;;;;5011231;28;20491;-67
2022/01/17 01:41:11;;;;;;;20.75;2.20;;;4.80;99.90;;;;;;5044485;28;20044;-68
2022/01/17 01:43:36;;;;;;;14.55;1.95;;;4.90;99.90;;;;;;5020393;28;20040;-68
2022/01/17 01:46:02;;;;;;;13.25;1.75;;;4.90;99.90;;;;;;5043470;28;20144;-67
2022/01/17 01:48:30;;;;;;;12.57;2.33;;;4.90;99.90;;;;;;5030649;28;20128;-68
2022/01/17 01:50:56;;;;;;;17.92;2.42;;;4.90;99.90;;;;;;5030919;28;20107;-68
2022/01/17 01:53:23;;;;;;;17.23;2.10;;;4.90;99.90;;;;;;5042850;28;20037;-68
2022/01/17 01:55:51;;;;;;;19.27;2.25;;;5.00;99.90;;;;;;5047512;28;20052;-66
2022/01/17 01:58:19;;;;;;;12.82;2.08;;;4.90;99.90;;;;;;5043542;28;20129;-68
2022/01/17 02:00:45;;;;;;;13.80;2.45;;;4.90;99.90;;;;;;5032466;28;20246;-67
2022/01/17 02:03:10;;;;;;;7.30;1.75;;;4.90;99.90;;;;;;5045683;28;20123;-68
2022/01/17 02:05:36;;;;;;;16.15;2.25;;;4.90;99.90;;;;;;5038504;28;20048;-68
2022/01/17 02:08:02;;;;;;;13.02;1.83;;;4.90;99.90;;;;;;5046548;28;20045;-68
2022/01/17 02:10:27;;;;;;;11.02;2.08;;;4.80;99.90;;;;;;5037540;28;20033;-69
2022/01/17 02:12:53;;;;;;;11.45;2.45;;;4.80;99.90;;;;;;5040373;28;20049;-68
2022/01/17 02:15:19;;;;;;;12.90;1.48;;;4.70;99.90;;;;;;5032620;28;20038;-68
2022/01/17 02:17:53;;;;;;;11.93;2.22;;;4.70;99.90;;;;;;5035775;28;20144;-67
2022/01/17 02:20:22;;;;;;;9.05;1.88;;;4.70;99.90;;;;;;5033263;28;20046;-67
2022/01/17 02:22:51;;;;;;;10.73;1.95;;;4.70;99.90;;;;;;5032588;28;20076;-68
2022/01/17 02:25:18;;;;;;;9.98;2.10;;;4.70;99.90;;;;;;5033485;28;20037;-68
2022/01/17 02:27:44;;;;;;;9.68;1.45;;;4.60;99.90;;;;;;5027172;28;20127;-67
2022/01/17 02:30:12;;;;;;;14.20;2.25;;;4.60;99.90;;;;;;5023172;28;20552;-68
2022/01/17 02:32:38;;;;;;;13.63;2.50;;;4.60;99.90;;;;;;5031965;28;20060;-67
2022/01/17 02:35:17;;;;;;;15.57;2.92;;;4.50;99.90;;;;;;5042242;28;20056;-70
2022/01/17 02:37:43;;;;;;;17.10;2.35;;;4.50;99.90;;;;;;5034797;28;20140;-68
2022/01/17 02:40:10;;;;;;;15.30;2.13;;;4.50;99.90;;;;;;5026529;28;20037;-67
2022/01/17 02:42:37;;;;;;;14.10;2.28;;;4.50;99.90;;;;;;5030909;28;20041;-68
2022/01/17 02:45:12;;;;;;;15.88;2.55;;;4.50;99.90;;;;;;5032348;28;20381;-68
2022/01/17 02:47:38;;;;;;;17.67;2.45;;;4.40;99.90;;;;;;5030665;28;20099;-68
2022/01/17 02:50:05;;;;;;;17.25;2.17;;;4.40;99.90;;;;;;5032581;28;20041;-66
2022/01/17 02:52:30;;;;;;;13.07;2.17;;;4.40;99.90;;;;;;5024999;28;20396;-64
2022/01/17 02:54:56;;;;;;;14.98;2.47;;;4.30;99.90;;;;;;5039004;28;20125;-70
2022/01/17 02:57:24;;;;;;;13.70;2.00;;;4.40;99.90;;;;;;5049352;28;20073;-69
2022/01/17 02:59:50;;;;;;;22.27;3.55;;;4.40;99.90;;;;;;5039821;28;20064;-67
2022/01/17 03:02:16;;;;;;;13.55;2.03;;;4.40;99.90;;;;;;5039148;28;20362;-69
2022/01/17 03:04:41;;;;;;;15.73;2.97;;;4.40;99.90;;;;;;5050113;28;20048;-70
2022/01/17 03:07:07;;;;;;;20.35;2.58;;;4.40;99.90;;;;;;5041365;28;20072;-68
2022/01/17 03:09:42;;;;;;;11.38;2.15;;;4.30;99.90;;;;;;5049308;28;20083;-69
2022/01/17 03:12:08;;;;;;;12.98;2.10;;;4.40;99.90;;;;;;5048008;28;20037;-68
2022/01/17 03:14:34;;;;;;;17.80;2.05;;;4.30;99.90;;;;;;5034382;28;20029;-67
2022/01/17 03:17:00;;;;;;;13.77;2.20;;;4.40;99.90;;;;;;5040402;28;20028;-67
2022/01/17 03:19:25;;;;;;;22.35;3.50;;;4.40;99.90;;;;;;5046951;28;20132;-68
2022/01/17 03:21:51;;;;;;;15.32;3.42;;;4.40;99.90;;;;;;5034372;28;20114;-68
2022/01/17 03:24:16;;;;;;;15.75;2.05;;;4.50;99.90;;;;;;5039992;28;20370;-68
2022/01/17 03:26:42;;;;;;;18.92;2.47;;;4.50;99.90;;;;;;5038576;28;20128;-66
2022/01/17 03:29:07;;;;;;;16.90;2.05;;;4.60;99.90;;;;;;5011902;28;20468;-68
2022/01/17 03:31:34;;;;;;;18.13;2.10;;;4.60;99.90;;;;;;5037768;28;20044;-68
2022/01/17 03:33:59;;;;;;;15.10;2.10;;;4.60;99.90;;;;;;5047530;28;20048;-69
2022/01/17 03:36:25;;;;;;;11.80;2.17;;;4.60;99.90;;;;;;5048409;28;20393;-66
2022/01/17 03:38:51;;;;;;;13.93;2.42;;;4.60;99.90;;;;;;5048302;28;20048;-68
2022/01/17 03:41:17;;;;;;;17.52;2.28;;;4.70;99.90;;;;;;5020028;28;20598;-67
2022/01/17 03:43:42;;;;;;;12.63;2.17;;;4.70;99.90;;;;;;5048348;28;20040;-68
2022/01/17 03:46:08;;;;;;;13.00;2.55;;;4.70;99.90;;;;;;5038594;28;20500;-67
2022/01/17 03:48:34;;;;;;;9.40;2.00;;;4.80;99.90;;;;;;5039959;28;20040;-67
2022/01/17 03:51:02;;;;;;;11.35;2.30;;;4.90;99.90;;;;;;5023841;28;20044;-67
2022/01/17 03:53:29;;;;;;;12.73;2.33;;;4.90;99.90;;;;;;5016231;28;20037;-67
2022/01/17 03:55:55;;;;;;;12.85;2.05;;;4.90;99.90;;;;;;5040309;28;20156;-68
2022/01/17 03:58:21;;;;;;;16.50;2.50;;;5.00;99.90;;;;;;5025983;28;20061;-67
2022/01/17 04:00:48;;;;;;;14.43;2.20;;;5.00;99.90;;;;;;5038088;28;20114;-68
2022/01/17 04:03:14;;;;;;;18.15;2.15;;;5.00;99.90;;;;;;5046201;28;20116;-67
2022/01/17 04:05:40;;;;;;;15.43;3.20;;;5.00;99.90;;;;;;5045452;28;20366;-66
2022/01/17 04:08:07;;;;;;;12.90;1.83;;;5.00;99.90;;;;;;5029544;28;20049;-66
2022/01/17 04:10:33;;;;;;;11.35;2.22;;;5.00;99.90;;;;;;5030069;28;20060;-67
2022/01/17 04:13:04;;;;;;;13.95;2.30;;;5.00;99.90;;;;;;5028058;28;20041;-66
2022/01/17 04:15:35;;;;;;;;;;;5.00;99.90;;;;;;5035662;28;20041;-67
2022/01/17 04:18:01;;;;;;;14.95;1.90;;;5.00;99.90;;;;;;5032929;28;19971;-67
2022/01/17 04:20:28;;;;;;;16.30;2.53;;;5.00;99.90;;;;;;5029109;28;20060;-67
2022/01/17 04:22:59;;;;;;;19.10;2.33;;;5.00;99.90;;;;;;5046242;28;20049;-67
2022/01/17 04:25:27;;;;;;;15.90;3.17;;;5.00;99.90;;;;;;5034719;28;20087;-67
2022/01/17 04:27:53;;;;;;;11.18;2.28;;;4.90;99.90;;;;;;5031935;28;20068;-67
2022/01/17 04:30:20;;;;;;;16.17;2.30;;;4.90;99.90;;;;;;5041187;28;20401;-68
2022/01/17 04:32:46;;;;;;;18.42;2.15;;;4.80;99.90;;;;;;5028730;28;20484;-69
2022/01/17 04:35:14;;;;;;;9.32;2.00;;;4.80;99.90;;;;;;5028487;28;20080;-67
2022/01/17 04:37:40;;;;;;;12.20;1.80;;;4.80;99.90;;;;;;5027872;28;20064;-68
2022/01/17 04:40:07;;;;;;;19.73;4.60;;;4.80;99.90;;;;;;5030333;28;20063;-66
2022/01/17 04:42:33;;;;;;;9.63;1.85;;;4.80;99.90;;;;;;5011071;28;20050;-67
2022/01/17 04:45:08;;;;;;;8.30;1.67;;;4.70;99.90;;;;;;5013485;28;20415;-68
2022/01/17 04:47:36;;;;;;;9.63;1.90;;;4.70;99.90;;;;;;5040472;28;20083;-67
2022/01/17 04:50:28;;;;;;;11.63;2.35;;;4.80;99.90;;;;;;5028608;28;20045;-67
2022/01/17 04:52:55;;;;;;;8.65;2.25;;;4.90;99.90;;;;;;5045542;28;20659;-68
2022/01/17 04:55:23;;;;;;;11.68;2.58;;;5.00;99.90;;;;;;5048319;28;20048;-66
2022/01/17 04:57:49;;;;;;;12.23;1.90;;;5.00;99.90;;;;;;5030307;28;20454;-68
2022/01/17 05:00:18;;;;;;;21.85;2.35;;;5.10;99.90;;;;;;5038435;28;20106;-67
2022/01/17 05:02:45;;;;;;;10.60;1.97;;;5.10;99.90;;;;;;5046579;28;20089;-68
2022/01/17 05:05:11;;;;;;;19.73;2.85;;;5.20;99.90;;;;;;5047076;28;20307;-68
2022/01/17 05:07:38;;;;;;;10.75;1.90;;;5.20;99.90;;;;;;5016920;28;20111;-67
2022/01/17 05:10:10;;;;;;;10.13;2.10;;;5.20;99.90;;;;;;5028866;28;20099;-68
2022/01/17 05:12:36;;;;;;;12.48;2.40;;;5.30;99.90;;;;;;5033311;28;20432;-66
2022/01/17 05:15:02;;;;;;;14.27;2.35;;;5.30;99.90;;;;;;5018646;28;20118;-66
2022/01/17 05:20:02;;;;;;;13.52;2.15;;;5.40;99.90;;;;;;5047366;28;20519;-67
2022/01/17 05:22:32;;;;;;;17.92;2.47;;;5.40;99.90;;;;;;5044107;28;20649;-68
2022/01/17 05:24:58;;;;;;;13.93;1.90;;;5.40;99.90;;;;;;5043217;28;20173;-67
2022/01/17 05:27:24;;;;;;;16.98;3.28;;;5.40;99.90;;;;;;5040897;28;20112;-67
2022/01/17 05:29:50;;;;;;;14.80;2.38;;;5.40;99.90;;;;;;5041449;28;20605;-67
2022/01/17 05:32:15;;;;;;;18.35;2.30;;;5.50;99.90;;;;;;5041281;28;20037;-67
2022/01/17 05:34:41;;;;;;;11.75;2.53;;;5.50;99.90;;;;;;5042353;28;20152;-68
2022/01/17 05:37:13;;;;;;;12.15;2.38;;;5.50;99.90;;;;;;5043481;28;20029;-68
2022/01/17 05:39:39;;;;;;;15.20;2.40;;;5.50;99.90;;;;;;5031997;28;20076;-67
2022/01/17 05:42:06;;;;;;;11.77;2.00;;;5.50;99.90;;;;;;5036836;28;20052;-66
2022/01/17 05:44:32;;;;;;;17.17;2.45;;;5.50;99.90;;;;;;5012311;28;20045;-66
2022/01/17 05:46:58;;;;;;;17.88;2.95;;;5.60;99.90;;;;;;5036338;28;20042;-67
2022/01/17 05:49:24;;;;;;;12.70;2.40;;;5.60;99.90;;;;;;5030212;28;20066;-67
2022/01/17 05:51:49;;;;;;;13.68;2.67;;;5.50;99.90;;;;;;5031142;28;20094;-67
2022/01/17 05:54:16;;;;;;;17.25;2.47;;;5.60;99.90;;;;;;5031689;28;20084;-66
2022/01/17 05:56:42;;;;;;;15.13;2.45;;;5.60;99.90;;;;;;5032926;28;20142;-68
2022/01/17 05:59:08;;;;;;;13.40;2.33;;;5.60;99.90;;;;;;5027388;28;20144;-66
2022/01/17 06:01:33;;;;;;;17.30;2.63;;;5.70;99.90;;;;;;5037688;28;20136;-67
2022/01/17 06:03:59;;;;;;;15.63;2.80;;;5.70;99.90;;;;;;5026084;28;20041;-66
2022/01/17 06:06:24;;;;;;;19.13;3.00;;;5.70;99.90;;;;;;5035004;28;20306;-67
2022/01/17 06:08:50;;;;;;;13.82;3.33;;;5.70;99.90;;;;;;5023640;28;20071;-67
2022/01/17 06:11:16;;;;;;;15.23;3.83;;;5.80;99.90;;;;;;5041298;28;20044;-66
2022/01/17 06:13:43;;;;;;;17.85;3.25;;;5.80;99.90;;;;;;5034749;28;20144;-65
2022/01/17 06:16:09;;;;;;;18.60;3.70;;;5.80;99.90;;;;;;5026672;28;20076;-67
2022/01/17 06:18:34;;;;;;;17.48;3.38;;;5.80;99.90;;;;;;5030457;28;20141;-67
2022/01/17 06:21:00;;;;;;;12.70;3.05;;;5.80;99.90;;;;;;5041341;28;20041;-64
2022/01/17 06:23:26;;;;;;;13.98;3.20;;;5.80;99.90;;;;;;5027362;28;20126;-66
2022/01/17 06:25:52;;;;;;;22.23;3.63;;;5.80;99.90;;;;;;5040419;28;20041;-66
2022/01/17 06:28:17;;;;;;;13.52;3.20;;;5.80;99.90;;;;;;5027493;28;20049;-67
2022/01/17 06:30:43;;;;;;;12.00;3.40;;;5.80;99.90;;;;;;5037156;28;20041;-67
2022/01/17 06:33:08;;;;;;;13.68;3.45;;;5.80;99.90;;;;;;5026205;28;20037;-67
2022/01/17 06:35:35;;;;;;;14.80;3.08;;;5.90;99.90;;;;;;5027614;28;20060;-66
2022/01/17 06:38:02;;;;;;;14.80;3.33;;;5.90;99.90;;;;;;5043147;28;20340;-66
2022/01/17 06:40:28;;;;;;;16.30;3.47;;;5.90;99.90;;;;;;5035469;28;20041;-67
2022/01/17 06:42:54;;;;;;;17.48;3.60;;;5.90;99.90;;;;;;5036554;28;20045;-66
2022/01/17 06:45:19;;;;;;;12.50;2.92;;;5.90;99.90;;;;;;5046124;28;20103;-66
2022/01/17 06:47:45;;;;;;;19.42;4.07;;;5.90;99.90;;;;;;5026514;28;20042;-67
2022/01/17 06:50:11;;;;;;;19.00;4.03;;;5.90;99.90;;;;;;5040174;28;20131;-66
2022/01/17 06:52:38;;;;;;;16.20;3.65;;;5.90;99.90;;;;;;5042032;28;20126;-66
2022/01/17 06:55:07;;;;;;;17.08;3.67;;;5.90;99.90;;;;;;5048011;28;20120;-65
2022/01/17 06:57:33;;;;;;;14.73;3.20;;;5.90;99.90;;;;;;5028269;28;20041;-67
2022/01/17 06:59:59;;;;;;;12.32;3.53;;;5.90;99.90;;;;;;5027818;28;20476;-67
2022/01/17 07:02:25;;;;;;;18.75;4.55;;;5.90;99.90;;;;;;5026516;28;20076;-66
2022/01/17 07:04:51;;;;;;;15.73;3.88;;;5.90;99.90;;;;;;5034042;28;20132;-66
2022/01/17 07:07:17;;;;;;;17.77;4.05;;;5.90;99.90;;;;;;5038432;28;20082;-66
2022/01/17 07:09:43;;;;;;;22.17;4.00;;;5.90;99.90;;;;;;5026524;28;20136;-66
2022/01/17 07:12:09;;;;;;;19.42;3.85;;;5.90;99.90;;;;;;5036761;28;20414;-66
2022/01/17 07:14:41;;;;;;;15.45;4.43;;;5.90;99.90;;;;;;5045011;28;20033;-66
2022/01/17 07:17:08;;;;;;;17.73;3.70;;;5.90;99.90;;;;;;5036145;28;20113;-67
2022/01/17 07:19:33;;;;;;;23.83;4.63;;;5.90;99.90;;;;;;5034738;28;20049;-67
2022/01/17 07:21:59;;;;;;;20.23;4.95;;;5.90;99.90;;;;;;5032668;28;20382;-68
2022/01/17 07:24:24;;;;;;;24.98;4.38;;;5.90;99.90;;;;;;5046974;28;20069;-68
2022/01/17 07:26:50;;;;;;;20.05;4.45;;;5.90;99.90;;;;;;5035020;28;20051;-67
2022/01/17 07:29:15;;;;;;;20.98;4.70;;;5.90;99.90;;;;;;5028680;28;20099;-68
2022/01/17 07:31:41;;;;;;;14.68;3.70;;;6.00;99.90;;;;;;5029903;28;20607;-67
2022/01/17 07:34:07;;;;;;;20.30;4.03;;;6.00;99.90;;;;;;5028213;28;20469;-68
2022/01/17 07:36:32;;;;;;;23.45;4.60;;;6.00;99.90;;;;;;5031959;28;20041;-67
2022/01/17 07:38:59;;;;;;;14.80;3.78;;;6.10;99.90;;;;;;5038789;28;20033;-68
2022/01/17 07:41:26;;;;;;;23.98;4.18;;;6.00;99.90;;;;;;5045402;28;20037;-67
2022/01/17 07:43:53;;;;;;;20.98;3.97;;;6.10;99.90;;;;;;5047687;28;20052;-68
2022/01/17 07:46:24;;;;;;;19.55;3.58;;;6.10;99.90;;;;;;5040524;28;20049;-68
2022/01/17 07:49:10;;;;;;;23.25;4.55;;;6.10;99.90;;;;;;5030661;28;20537;-66
2022/01/17 07:51:39;;;;;;;21.95;3.97;;;6.20;99.90;;;;;;5045666;28;20053;-68
2022/01/17 07:54:08;;;;;;;24.90;4.17;;;6.20;99.90;;;;;;5013125;28;20793;-69
2022/01/17 07:56:34;;;;;;;19.77;4.45;;;6.20;99.90;;;;;;5048035;28;20141;-68
2022/01/17 07:59:01;;;;;;;19.20;3.92;;;6.20;99.90;;;;;;5047151;28;20184;-67
2022/01/17 08:01:27;;;;;;;20.52;4.18;;;6.20;99.90;;;;;;5029924;28;20060;-68
2022/01/17 08:03:52;;;;;;;23.77;4.60;;;6.30;99.90;;;;;;5043494;28;20064;-67
2022/01/17 08:06:18;;;;;;;19.60;3.78;;;6.30;99.90;;;;;;5040482;28;20033;-67
2022/01/17 08:08:43;;;;;;;23.88;4.03;;;6.30;99.90;;;;;;5026329;28;20045;-67
2022/01/17 08:11:09;;;;;;;23.17;4.10;;;6.30;99.90;;;;;;5018172;28;20033;-68
2022/01/17 08:13:35;;;;;;;20.15;3.70;;;6.30;99.90;;;;;;5042708;28;20514;-66
2022/01/17 08:16:02;;;;;;;20.85;4.13;;;6.30;99.90;;;;;;5029878;28;20056;-68
2022/01/17 08:18:28;;;;;;;27.95;4.57;;;6.40;99.90;;;;;;5032776;28;20060;-67
2022/01/17 08:20:54;;;;;;;27.88;4.20;;;6.40;99.90;;;;;;5029911;28;20049;-68
2022/01/17 08:23:19;;;;;;;25.58;4.30;;;6.40;99.90;;;;;;5028594;28;20351;-67
2022/01/17 08:25:45;;;;;;;33.65;5.30;;;6.40;99.90;;;;;;5030248;28;20545;-67
2022/01/17 08:28:10;;;;;;;24.70;4.03;;;6.40;99.90;;;;;;5035838;28;20566;-67
2022/01/17 08:30:36;;;;;;;22.77;4.28;;;6.40;99.90;;;;;;5034030;28;20048;-67
2022/01/17 08:33:02;;;;;;;29.95;4.85;;;6.40;99.90;;;;;;5029408;28;20132;-68
2022/01/17 08:35:28;;;;;;;21.83;3.83;;;6.50;99.90;;;;;;5012117;28;20200;-66
2022/01/17 08:37:53;;;;;;;21.02;4.13;;;6.50;99.90;;;;;;5030159;28;20107;-70
2022/01/17 08:40:19;;;;;;;25.85;5.10;;;6.50;99.90;;;;;;5033170;28;20072;-68
2022/01/17 08:42:46;;;;;;;20.27;4.53;;;6.50;99.90;;;;;;5028195;28;20077;-67
2022/01/17 08:45:14;;;;;;;25.20;4.30;;;6.50;99.90;;;;;;5035167;28;20523;-67
2022/01/17 08:47:39;;;;;;;20.75;3.80;;;6.50;99.90;;;;;;5042295;28;20135;-67
2022/01/17 08:50:07;;;;;;;22.63;4.45;;;6.60;99.90;;;;;;5030898;28;20136;-67
2022/01/17 08:52:33;;;;;;;17.83;4.03;;;6.60;99.90;;;;;;5035957;28;20041;-68
2022/01/17 08:54:58;;;;;;;24.30;3.65;;;6.60;99.90;;;;;;5040250;28;20040;-66
2022/01/17 08:57:25;;;;;;;27.33;4.45;;;6.70;99.90;;;;;;5042459;28;20029;-66
2022/01/17 08:59:51;;;;;;;28.83;4.65;;;6.70;99.90;;;;;;5029138;28;20082;-67
2022/01/17 09:02:17;;;;;;;26.48;4.15;;;6.70;99.90;;;;;;5036159;28;20104;-67
2022/01/17 09:04:42;;;;;;;15.73;3.55;;;6.70;99.90;;;;;;5063838;28;20044;-67
2022/01/17 09:07:15;;;;;;;22.50;4.07;;;6.70;99.90;;;;;;5022824;28;20504;-67
2022/01/17 09:09:42;;;;;;;23.52;4.28;;;6.70;99.90;;;;;;5039987;28;20037;-68
2022/01/17 09:12:09;;;;;;;30.30;4.60;;;6.80;99.90;;;;;;5027244;28;20045;-67
2022/01/17 09:14:35;;;;;;;26.77;6.05;;;6.80;99.90;;;;;;5034478;28;20037;-67
2022/01/17 09:17:03;;;;;;;26.70;4.25;;;6.80;99.90;;;;;;5046086;28;20048;-66
2022/01/17 09:19:28;;;;;;;24.33;4.68;;;6.80;99.90;;;;;;5048364;28;20102;-66
2022/01/17 09:21:54;;;;;;;23.77;4.18;;;6.90;99.90;;;;;;5044613;28;20079;-67
2022/01/17 09:24:20;;;;;;;20.10;4.03;;;6.90;99.90;;;;;;5032310;28;20040;-67
2022/01/17 09:26:46;;;;;;;30.52;4.75;;;7.00;99.90;;;;;;5034144;28;20063;-68
2022/01/17 09:29:12;;;;;;;26.65;4.28;;;7.00;99.90;;;;;;5035802;28;20072;-67
2022/01/17 09:31:38;;;;;;;23.17;4.68;;;7.00;99.90;;;;;;5038286;28;20090;-68
2022/01/17 09:34:03;;;;;;;21.20;3.88;;;7.10;99.90;;;;;;5033876;28;20765;-66
2022/01/17 09:36:33;;;;;;;22.63;3.67;;;7.20;99.90;;;;;;5031508;28;20437;-67
2022/01/17 09:38:58;;;;;;;22.63;5.05;;;7.20;99.90;;;;;;5039194;28;20044;-67
2022/01/17 09:41:24;;;;;;;29.20;4.43;;;7.40;99.90;;;;;;5038913;28;20045;-66
2022/01/17 09:43:51;;;;;;;28.85;4.15;;;7.40;99.90;;;;;;5046409;28;20046;-68
2022/01/17 09:46:21;;;;;;;28.05;4.00;;;7.50;99.90;;;;;;5056287;28;20033;-68
2022/01/17 09:48:49;;;;;;;29.90;4.65;;;7.70;99.90;;;;;;5045994;28;20065;-65
2022/01/17 09:51:38;;;;;;;23.77;3.78;;;7.80;99.90;;;;;;5037972;28;20174;-66
2022/01/17 09:54:05;;;;;;;29.87;3.97;;;7.80;99.90;;;;;;5030324;28;20419;-67
2022/01/17 09:56:32;;;;;;;29.08;4.47;;;7.90;99.90;;;;;;5042912;28;20036;-68
2022/01/17 09:58:58;;;;;;;36.78;4.82;;;7.90;99.90;;;;;;5036520;28;20090;-67
2022/01/17 10:01:24;;;;;;;29.70;4.22;;;8.00;99.90;;;;;;5030301;28;20575;-66
2022/01/17 10:03:52;;;;;;;29.38;4.70;;;8.00;99.90;;;;;;5047934;28;20044;-67
2022/01/17 10:06:19;;;;;;;33.60;5.10;;;8.10;99.90;;;;;;5023513;28;20045;-65
2022/01/17 10:08:44;;;;;;;29.83;5.10;;;8.10;99.90;;;;;;5035998;28;20098;-67
2022/01/17 10:11:16;;;;;;;27.35;4.57;;;8.20;99.90;;;;;;5047020;28;20480;-66
2022/01/17 10:13:45;;;;;;;35.88;4.50;;;8.30;99.90;;;;;;5037286;28;20037;-65
2022/01/17 10:16:20;;;;;;;26.42;4.40;;;8.30;99.90;;;;;;5040841;28;20041;-66
2022/01/17 10:19:03;;;;;;;29.05;4.28;;;8.30;99.90;;;;;;5029399;28;20060;-67
2022/01/17 10:21:47;;;;;;;30.00;4.75;;;8.30;99.90;;;;;;5042680;28;20048;-67
2022/01/17 10:35:24;;;;;;;36.15;5.38;;;8.60;99.90;;;;;;5036767;28;20080;-66
2022/01/17 10:38:01;;;;;;;;;;;8.70;99.90;;;;;;5027228;28;20041;-66
2022/01/17 10:40:39;;;;;;;29.92;4.32;;;8.70;99.90;;;;;;5046459;28;19916;-66
2022/01/17 10:43:17;;;;;;;37.17;5.90;;;8.70;99.90;;;;;;5024829;28;20048;-66
2022/01/17 10:45:43;;;;;;;26.65;5.03;;;8.70;99.90;;;;;;5030304;28;20046;-64
2022/01/17 10:48:09;;;;;;;32.38;4.70;;;8.80;99.90;;;;;;5040481;28;20480;-67
2022/01/17 10:50:38;;;;;;;38.75;5.70;;;8.80;99.90;;;;;;5048285;28;20040;-66
2022/01/17 10:53:07;;;;;;;32.10;4.68;;;8.80;99.90;;;;;;5044698;28;20060;-66
2022/01/17 10:55:38;;;;;;;26.13;4.78;;;8.80;99.90;;;;;;5044853;28;20033;-66
2022/01/17 10:58:08;;;;;;;35.30;5.65;;;8.80;99.90;;;;;;5045577;28;20610;-67
2022/01/17 11:00:37;;;;;;;34.05;5.20;;;8.90;99.90;;;;;;5030328;28;20044;-67
2022/01/17 11:03:09;;;;;;;37.97;6.13;;;8.90;99.90;;;;;;5030154;28;20448;-67
2022/01/17 11:05:40;;;;;;;28.35;5.30;;;8.90;99.90;;;;;;5046688;28;20041;-65
2022/01/17 11:08:05;;;;;;;33.22;5.82;;;8.90;99.90;;;;;;5049537;28;20048;-66
2022/01/17 11:10:34;;;;;;;33.33;4.97;;;8.90;99.90;;;;;;5051903;28;20036;-67
2022/01/17 11:13:03;;;;;;;33.53;5.43;;;8.90;99.90;;;;;;5034881;28;20051;-66
2022/01/17 11:15:32;;;;;;;36.10;5.25;;;8.80;99.90;;;;;;5041462;28;20029;-67
2022/01/17 11:18:01;;;;;;;32.90;6.40;;;8.80;99.90;;;;;;5050337;28;20133;-65
2022/01/17 11:20:28;;;;;;;31.90;5.18;;;8.80;99.90;;;;;;5034049;28;20049;-67
2022/01/17 11:22:59;;;;;;;36.70;6.05;;;8.90;99.90;;;;;;5031182;28;20042;-66
2022/01/17 11:25:30;;;;;;;36.28;5.40;;;9.00;99.90;;;;;;5039015;28;20049;-65
2022/01/17 11:27:57;;;;;;;37.00;5.07;;;8.90;99.90;;;;;;5041976;28;20041;-66
2022/01/17 11:30:23;;;;;;;37.97;6.70;;;9.00;99.90;;;;;;5048713;28;20033;-67
2022/01/17 11:32:51;;;;;;;35.40;5.65;;;9.20;99.90;;;;;;5038998;28;20397;-67
2022/01/17 11:35:19;;;;;;;39.33;6.05;;;9.20;99.90;;;;;;5031124;28;20398;-66
2022/01/17 11:37:48;;;;;;;39.97;7.20;;;9.30;99.90;;;;;;5029062;28;20108;-66
2022/01/17 11:40:19;;;;;;;28.95;5.35;;;9.20;99.90;;;;;;5044549;28;20041;-66
2022/01/17 11:42:48;;;;;;;37.03;5.80;;;9.20;99.90;;;;;;5034554;28;20072;-67
2022/01/17 11:45:22;;;;;;;33.25;5.93;;;9.20;99.90;;;;;;5040251;28;20076;-67
2022/01/17 11:47:48;;;;;;;28.77;5.70;;;9.20;99.90;;;;;;5029885;28;20046;-65
2022/01/17 11:50:36;;;;;;;30.90;6.10;;;9.10;99.90;;;;;;5026335;28;20048;-67
2022/01/17 11:53:11;;;;;;;31.80;5.72;;;9.10;99.90;;;;;;5037401;28;20078;-66
2022/01/17 11:55:42;;;;;;;37.30;5.60;;;9.10;99.90;;;;;;5033298;28;20087;-67
2022/01/17 11:58:22;;;;;;;35.10;5.28;;;9.10;99.90;;;;;;5030765;28;20204;-66
2022/01/17 12:00:57;;;;;;;34.63;5.78;;;9.20;99.90;;;;;;5054346;28;20043;-66
2022/01/17 12:03:25;;;;;;;38.97;6.30;;;9.20;99.90;;;;;;5049200;28;20150;-66
2022/01/17 12:05:52;;;;;;;27.10;5.03;;;9.20;99.90;;;;;;5049107;28;20049;-67
2022/01/17 12:08:22;;;;;;;32.88;5.47;;;9.10;99.90;;;;;;5038340;28;20037;-65
2022/01/17 12:10:52;;;;;;;41.00;5.90;;;9.10;99.90;;;;;;5045488;28;20376;-66
2022/01/17 12:13:19;;;;;;;30.67;4.95;;;9.00;99.90;;;;;;5047548;28;20364;-66
2022/01/17 12:15:54;;;;;;;33.08;5.93;;;9.00;99.90;;;;;;5031030;28;20495;-64
2022/01/17 12:18:28;;;;;;;33.72;5.85;;;9.00;99.90;;;;;;5040786;28;20441;-66
2022/01/17 12:20:54;;;;;;;39.00;6.40;;;9.00;99.90;;;;;;5049024;28;20060;-67
2022/01/17 12:23:27;;;;;;;35.17;5.72;;;9.00;99.90;;;;;;5047687;28;20040;-65
2022/01/17 12:25:53;;;;;;;34.85;5.22;;;9.00;99.90;;;;;;5045354;28;20046;-65
2022/01/17 12:28:18;;;;;;;30.05;4.97;;;9.10;99.90;;;;;;5043856;28;20124;-66
2022/01/17 12:30:54;;;;;;;29.52;5.85;;;9.10;99.90;;;;;;5050244;28;20127;-66
2022/01/17 12:33:37;;;;;;;33.40;5.32;;;9.10;99.90;;;;;;5032350;28;20053;-66
2022/01/17 12:36:29;;;;;;;34.22;5.70;;;9.20;99.90;;;;;;5049951;28;20080;-65
2022/01/17 12:39:33;;;;;;;34.38;4.97;;;9.20;99.90;;;;;;5041423;28;20037;-65
2022/01/17 12:42:02;;;;;;;38.75;5.43;;;9.20;99.90;;;;;;5008193;28;20037;-66
2022/01/17 12:44:30;;;;;;;28.35;5.53;;;9.20;99.90;;;;;;4975941;28;20061;-66
2022/01/17 12:46:58;;;;;;;35.63;5.97;;;9.20;99.90;;;;;;5008222;28;20681;-66
2022/01/17 12:49:24;;;;;;;37.03;6.85;;;9.20;99.90;;;;;;5029790;28;20056;-66
2022/01/17 12:51:53;;;;;;;29.15;5.88;;;9.20;99.90;;;;;;5029963;28;20045;-65
2022/01/17 12:54:25;;;;;;;32.13;5.43;;;9.20;99.90;;;;;;5037038;28;20036;-66
2022/01/17 12:56:54;;;;;;;27.38;4.78;;;9.20;99.90;;;;;;5046600;28;20041;-65
2022/01/17 12:59:21;;;;;;;29.00;4.65;;;9.20;99.90;;;;;;5045601;28;20037;-66
2022/01/17 13:01:52;;;;;;;28.40;4.30;;;9.20;99.90;;;;;;5030548;28;20525;-64
2022/01/17 13:04:19;;;;;;;32.15;4.70;;;9.10;99.90;;;;;;5042286;28;20037;-66
2022/01/17 13:06:46;;;;;;;24.02;4.55;;;9.10;99.90;;;;;;5030959;28;20041;-67
2022/01/17 13:09:14;;;;;;;25.67;5.18;;;9.10;99.90;;;;;;5013782;28;20052;-66
2022/01/17 13:11:42;;;;;;;31.00;4.65;;;9.10;99.90;;;;;;5036628;28;20480;-65
2022/01/17 13:14:09;;;;;;;27.23;5.05;;;9.10;99.90;;;;;;5046873;28;20444;-66
2022/01/17 13:16:36;;;;;;;28.73;5.03;;;9.10;99.90;;;;;;5048080;28;20048;-65